Time;durP1;ratioP1;P1;durP2;ratioP2;P2;SDS_P1;SDS_P2;PMS_P1;PMS_P2;Temp;Humidity;BMP_temperature;BMP_pressure;BME280_temperature;BME280_humidity;BME280_pressure;Samples;Min_cycle;Max_cycle;Signal;HPM_P1;HPM_P2
2021/05/28 00:01:19;;;;;;;;;;;;;;;8.86;68.20;100934.12;1694573;84;20292;-74
2021/05/28 00:03:45;;;;;;;;;;;;;;;8.79;68.17;100936.33;1707542;81;20502;-74
2021/05/28 00:06:11;;;;;;;;;;;;;;;8.73;68.24;100938.50;1696210;83;20240;-74
2021/05/28 00:08:36;;;;;;;;;;;;;;;8.67;68.32;100934.66;1703830;83;20308;-74
2021/05/28 00:11:05;;;;;;;;;;;;;;;8.65;68.42;100937.66;1719136;83;20178;-74
2021/05/28 00:13:32;;;;;;;;;;;;;;;8.60;68.36;100941.55;1717122;83;20206;-74
2021/05/28 00:15:58;;;;;;;;;;;;;;;8.58;68.45;100946.27;1720643;83;20533;-74
2021/05/28 00:18:27;;;;;;;;;;;;;;;8.56;68.44;100940.27;1725341;82;20210;-74
2021/05/28 00:20:52;;;;;;;;;;;;;;;8.56;68.44;100942.84;1725410;83;20643;-74
2021/05/28 00:23:18;;;;;;;;;;;;;;;8.51;68.37;100938.13;1720423;83;20711;-74
2021/05/28 00:25:44;;;;;;;;;;;;;;;8.48;68.48;100942.00;1724867;83;20577;-74
2021/05/28 00:28:10;;;;;;;;;;;;;;;8.47;68.50;100945.44;1702502;84;20196;-75
2021/05/28 00:30:37;;;;;;;;;;;;;;;8.46;68.54;100943.72;1702552;84;20185;-75
2021/05/28 00:33:03;;;;;;;;;;;;;;;8.47;68.61;100940.28;1713526;83;20147;-75
2021/05/28 00:35:30;;;;;;;;;;;;;;;8.48;68.64;100939.42;1703480;82;20192;-75
2021/05/28 00:37:56;;;;;;;;;;;;;;;8.49;68.68;100938.13;1702521;84;20180;-75
2021/05/28 00:40:23;;;;;;;;;;;;;;;8.51;68.71;100939.42;1702717;83;20208;-75
2021/05/28 00:42:55;;;;;;;;;;;;;;;8.52;68.74;100934.69;1706555;83;20568;-75
2021/05/28 00:45:21;;;;;;;;;;;;;;;8.52;68.76;100935.55;1729770;83;20193;-75
2021/05/28 00:47:47;;;;;;;;;;;;;;;8.52;68.81;100935.98;1723518;83;20611;-75
2021/05/28 00:50:21;;;;;;;;;;;;;;;8.54;68.83;100942.84;1731572;83;20182;-75
2021/05/28 00:52:49;;;;;;;;;;;;;;;8.54;68.84;100941.56;1731643;82;20178;-75
2021/05/28 00:55:16;;;;;;;;;;;;;;;8.57;68.88;100940.27;1726570;83;20204;-75
2021/05/28 00:57:45;;;;;;;;;;;;;;;8.58;68.93;100935.97;1702619;84;20217;-75
2021/05/28 01:00:12;;;;;;;;;;;;;;;8.55;68.89;100937.26;1685462;83;20201;-75
2021/05/28 01:02:38;;;;;;;;;;;;;;;8.54;68.97;100939.41;1731588;82;20143;-75
2021/05/28 01:05:06;;;;;;;;;;;;;;;8.54;69.02;100940.70;1731805;82;20139;-75
2021/05/28 01:07:32;;;;;;;;;;;;;;;8.56;69.06;100935.11;1725738;83;20220;-75
2021/05/28 01:09:58;;;;;;;;;;;;;;;8.59;69.08;100934.67;1702488;83;20181;-75
2021/05/28 01:12:24;;;;;;;;;;;;;;;8.61;69.11;100936.81;1702538;83;20511;-75
2021/05/28 01:14:50;;;;;;;;;;;;;;;8.62;69.11;100930.80;1722601;83;20182;-75
2021/05/28 01:17:16;;;;;;;;;;;;;;;8.64;69.09;100933.37;1731437;83;20533;-75
2021/05/28 01:19:48;;;;;;;;;;;;;;;8.63;69.09;100938.95;1731574;81;20521;-75
2021/05/28 01:22:18;;;;;;;;;;;;;;;8.65;69.18;100935.52;1706743;83;20815;-75
2021/05/28 01:24:42;;;;;;;;;;;;;;;8.68;69.25;100934.22;1704839;81;20188;-74
2021/05/28 01:27:10;;;;;;;;;;;;;;;8.69;69.27;100934.22;1723464;83;20166;-74
2021/05/28 01:29:36;;;;;;;;;;;;;;;8.73;69.38;100936.35;1719510;83;20178;-74
2021/05/28 01:32:03;;;;;;;;;;;;;;;8.75;69.40;100935.48;1694704;83;20217;-74
2021/05/28 01:34:32;;;;;;;;;;;;;;;8.78;69.42;100939.77;1723523;83;20198;-74
2021/05/28 01:36:58;;;;;;;;;;;;;;;8.81;69.47;100938.48;1722332;83;20277;-74
2021/05/28 01:39:24;;;;;;;;;;;;;;;8.81;69.48;100938.48;1721153;82;20217;-74
2021/05/28 01:41:50;;;;;;;;;;;;;;;8.83;69.51;100936.75;1693268;84;20221;-74
2021/05/28 01:44:17;;;;;;;;;;;;;;;8.87;69.56;100943.14;1682516;83;20189;-74
2021/05/28 01:46:44;;;;;;;;;;;;;;;8.89;69.57;100941.42;1705372;81;20521;-74
2021/05/28 01:49:11;;;;;;;;;;;;;;;8.92;69.63;100943.13;1712693;83;20589;-74
2021/05/28 01:51:37;;;;;;;;;;;;;;;8.96;69.64;100943.55;1721883;83;20928;-74
2021/05/28 01:54:04;;;;;;;;;;;;;;;8.99;69.62;100942.67;1721660;82;20293;-74
2021/05/28 01:56:30;;;;;;;;;;;;;;;9.00;69.64;100942.67;1722066;83;20226;-74
2021/05/28 01:58:56;;;;;;;;;;;;;;;9.00;69.66;100941.38;1696766;82;20159;-74
2021/05/28 02:01:25;;;;;;;;;;;;;;;9.03;69.73;100947.81;1715474;83;20717;-74
2021/05/28 02:03:51;;;;;;;;;;;;;;;9.06;69.73;100943.93;1713846;83;20290;-74
2021/05/28 02:06:18;;;;;;;;;;;;;;;9.11;69.77;100950.36;1703495;81;20180;-74
2021/05/28 02:08:44;;;;;;;;;;;;;;;9.12;69.73;100950.78;1695450;83;20318;-74
2021/05/28 02:11:10;;;;;;;;;;;;;;;9.14;69.73;100952.50;1693292;83;20241;-74
2021/05/28 02:13:36;;;;;;;;;;;;;;;9.15;69.75;100951.63;1693412;83;20241;-74
2021/05/28 02:16:06;;;;;;;;;;;;;;;9.17;69.74;100949.05;1718349;83;20230;-74
2021/05/28 02:18:32;;;;;;;;;;;;;;;9.18;69.76;100950.76;1722074;83;20230;-74
2021/05/28 02:20:58;;;;;;;;;;;;;;;9.20;69.80;100955.05;1716134;83;20561;-74
2021/05/28 02:23:24;;;;;;;;;;;;;;;9.22;69.82;100948.16;1693283;83;20524;-74
2021/05/28 02:25:50;;;;;;;;;;;;;;;9.24;69.91;100952.02;1693743;84;20872;-74
2021/05/28 02:28:16;;;;;;;;;;;;;;;9.26;69.93;100952.44;1699973;83;20266;-74
2021/05/28 02:30:43;;;;;;;;;;;;;;;9.27;69.90;100952.86;1723722;83;20298;-74
2021/05/28 02:33:09;;;;;;;;;;;;;;;9.26;69.94;100957.59;1722624;83;20254;-74
2021/05/28 02:35:35;;;;;;;;;;;;;;;9.27;69.93;100958.45;1723643;83;20274;-74
2021/05/28 02:38:01;;;;;;;;;;;;;;;9.27;69.89;100959.74;1723469;83;20262;-74
2021/05/28 02:40:27;;;;;;;;;;;;;;;9.26;69.89;100960.61;1710665;83;20220;-74
2021/05/28 02:42:53;;;;;;;;;;;;;;;9.24;69.89;100956.75;1694860;84;20576;-74
2021/05/28 02:45:21;;;;;;;;;;;;;;;9.19;69.77;100966.23;1702046;83;20263;-74
2021/05/28 02:47:47;;;;;;;;;;;;;;;9.16;69.84;100962.81;1723633;81;20537;-75
2021/05/28 02:50:14;;;;;;;;;;;;;;;9.15;69.89;100969.69;1723812;83;20657;-75
2021/05/28 02:52:40;;;;;;;;;;;;;;;9.15;69.93;100973.56;1723909;83;20281;-75
2021/05/28 02:55:08;;;;;;;;;;;;;;;9.14;69.99;100971.84;1716070;81;20249;-75
2021/05/28 02:57:36;;;;;;;;;;;;;;;9.16;70.02;100971.41;1694794;83;20237;-75
2021/05/28 03:00:05;;;;;;;;;;;;;;;9.17;70.03;100969.25;1694880;84;20212;-75
2021/05/28 03:02:31;;;;;;;;;;;;;;;9.17;70.03;100969.69;1707549;83;20171;-75
2021/05/28 03:04:57;;;;;;;;;;;;;;;9.16;70.02;100967.97;1723828;83;20246;-75
2021/05/28 03:07:24;;;;;;;;;;;;;;;9.16;70.03;100977.86;1723946;83;20285;-75
2021/05/28 03:10:07;;;;;;;;;;;;;;;9.16;70.03;100973.98;1699449;83;20551;-75
2021/05/28 03:12:33;;;;;;;;;;;;;;;9.15;70.04;100983.02;1695062;83;20209;-75
2021/05/28 03:14:59;;;;;;;;;;;;;;;9.13;70.10;100971.42;1701185;83;20569;-75
2021/05/28 03:17:27;;;;;;;;;;;;;;;9.15;70.20;100976.14;1694801;83;20224;-75
2021/05/28 03:19:53;;;;;;;;;;;;;;;9.19;70.27;100977.84;1696425;84;20544;-75
2021/05/28 03:22:32;;;;;;;;;;;;;;;9.25;70.35;100980.39;1711648;81;20544;-75
2021/05/28 03:25:01;;;;;;;;;;;;;;;9.32;70.38;100984.23;1723977;83;20270;-75
2021/05/28 03:27:27;;;;;;;;;;;;;;;9.37;70.42;100983.75;1708919;82;20226;-75
2021/05/28 03:29:53;;;;;;;;;;;;;;;9.43;70.49;100986.30;1723999;83;20288;-75
2021/05/28 03:32:19;;;;;;;;;;;;;;;9.48;70.55;100980.25;1724287;83;20726;-75
2021/05/28 03:34:45;;;;;;;;;;;;;;;9.56;70.56;100990.09;1724411;83;20199;-75
2021/05/28 03:37:12;;;;;;;;;;;;;;;9.60;70.60;100991.80;1698523;83;20815;-75
2021/05/28 03:39:39;;;;;;;;;;;;;;;9.63;70.65;100987.91;1724529;82;20657;-75
2021/05/28 03:42:05;;;;;;;;;;;;;;;9.68;70.70;100989.60;1724340;83;20234;-75
2021/05/28 03:44:31;;;;;;;;;;;;;;;9.71;70.77;100988.29;1718116;82;20297;-75
2021/05/28 03:46:59;;;;;;;;;;;;;;;9.78;70.80;100995.13;1711573;83;20192;-75
2021/05/28 03:49:25;;;;;;;;;;;;;;;9.84;70.82;100991.22;1695256;84;20200;-75
2021/05/28 03:51:52;;;;;;;;;;;;;;;9.88;70.75;100991.16;1695625;84;20229;-75
2021/05/28 03:54:24;;;;;;;;;;;;;;;9.92;70.75;100991.55;1702688;81;20525;-75
2021/05/28 03:56:54;;;;;;;;;;;;;;;9.93;70.88;100988.54;1513075;83;20011657;-75
2021/05/28 03:59:20;;;;;;;;;;;;;;;10.00;70.94;100997.10;1695737;84;20717;-75
2021/05/28 04:01:47;;;;;;;;;;;;;;;10.06;70.98;100996.63;1698386;83;20705;-75
2021/05/28 04:04:13;;;;;;;;;;;;;;;10.13;71.00;100999.58;1700858;83;20666;-75
2021/05/28 04:06:39;;;;;;;;;;;;;;;10.19;71.00;100997.39;1694952;84;20224;-75
2021/05/28 04:09:06;;;;;;;;;;;;;;;10.19;71.00;100996.98;1696967;83;20532;-75
2021/05/28 04:11:32;;;;;;;;;;;;;;;10.26;71.05;100993.91;1695960;83;21082;-75
2021/05/28 04:13:58;;;;;;;;;;;;;;;10.31;71.04;100994.73;1695255;83;20216;-75
2021/05/28 04:16:24;;;;;;;;;;;;;;;10.35;71.00;100997.71;1719950;83;20519;-75
2021/05/28 04:18:50;;;;;;;;;;;;;;;10.36;71.09;100994.69;1724455;83;20210;-75
2021/05/28 04:21:17;;;;;;;;;;;;;;;10.41;71.14;100993.75;1724331;83;20353;-75
2021/05/28 04:23:44;;;;;;;;;;;;;;;10.46;71.14;100991.98;1712215;81;20298;-74
2021/05/28 04:26:10;;;;;;;;;;;;;;;10.50;71.06;100991.08;1705421;82;20524;-74
2021/05/28 04:28:36;;;;;;;;;;;;;;;10.53;71.17;100996.66;1693636;84;20499;-74
2021/05/28 04:31:02;;;;;;;;;;;;;;;10.57;71.20;100996.61;1693459;83;20204;-74
2021/05/28 04:33:29;;;;;;;;;;;;;;;10.61;71.26;100997.44;1710967;81;20199;-74
2021/05/28 04:35:55;;;;;;;;;;;;;;;10.68;71.27;100998.23;1697368;83;20221;-74
2021/05/28 04:38:21;;;;;;;;;;;;;;;10.73;71.31;100996.02;1698034;83;20636;-74
2021/05/28 04:40:48;;;;;;;;;;;;;;;10.76;71.20;100996.42;1694946;83;20221;-74
2021/05/28 04:43:15;;;;;;;;;;;;;;;10.80;71.32;101001.98;1687646;82;20590;-74
2021/05/28 04:45:41;;;;;;;;;;;;;;;10.85;71.27;100998.48;1695174;83;20523;-74
2021/05/28 04:48:07;;;;;;;;;;;;;;;10.89;71.39;101005.34;1693870;84;20513;-74
2021/05/28 04:50:39;;;;;;;;;;;;;;;10.97;71.43;101005.22;1695072;82;21070;-74
2021/05/28 04:53:07;;;;;;;;;;;;;;;11.06;71.43;101004.25;1715658;83;20590;-74
2021/05/28 04:55:33;;;;;;;;;;;;;;;11.11;71.37;101005.91;1723630;83;20659;-75
2021/05/28 04:58:01;;;;;;;;;;;;;;;11.10;71.31;101009.38;1718880;83;20218;-75
2021/05/28 05:00:27;;;;;;;;;;;;;;;11.15;71.43;101008.89;1693275;83;20224;-75
2021/05/28 05:02:53;;;;;;;;;;;;;;;11.17;71.39;101007.14;1702565;83;20280;-75
2021/05/28 05:05:20;;;;;;;;;;;;;;;11.20;71.44;101010.98;1722472;83;20565;-75
2021/05/28 05:07:46;;;;;;;;;;;;;;;11.23;71.46;101013.98;1718388;83;20588;-75
2021/05/28 05:10:13;;;;;;;;;;;;;;;11.23;71.35;101019.16;1693660;83;20682;-75
2021/05/28 05:12:40;;;;;;;;;;;;;;;11.21;71.10;101018.31;1693608;84;20656;-75
2021/05/28 05:15:08;;;;;;;;;;;;;;;11.20;71.51;101020.48;1693628;84;20673;-75
2021/05/28 05:17:38;;;;;;;;;;;;;;;11.23;71.59;101023.03;1700330;83;20576;-75
2021/05/28 05:20:06;;;;;;;;;;;;;;;11.30;71.60;101025.97;1693912;83;20975;-75
2021/05/28 05:22:32;;;;;;;;;;;;;;;11.33;71.61;101027.23;1693826;84;20249;-75
2021/05/28 05:24:59;;;;;;;;;;;;;;;11.36;71.61;101030.22;1693565;84;20225;-75
2021/05/28 05:27:25;;;;;;;;;;;;;;;11.35;71.63;101028.50;1693460;83;20553;-75
2021/05/28 05:29:51;;;;;;;;;;;;;;;11.36;71.67;101036.69;1702884;83;20302;-75
2021/05/28 05:32:18;;;;;;;;;;;;;;;11.41;71.77;101032.31;1710125;83;20576;-75
2021/05/28 05:34:45;;;;;;;;;;;;;;;11.45;71.75;101031.36;1722236;83;20265;-75
2021/05/28 05:37:11;;;;;;;;;;;;;;;11.49;71.77;101035.19;1722343;83;20645;-75
2021/05/28 05:39:38;;;;;;;;;;;;;;;11.54;71.78;101033.84;1718817;83;20222;-75
2021/05/28 05:42:05;;;;;;;;;;;;;;;11.60;71.84;101038.50;1706413;83;20188;-75
2021/05/28 05:44:31;;;;;;;;;;;;;;;11.66;71.72;101035.41;1690743;83;20288;-75
2021/05/28 05:46:57;;;;;;;;;;;;;;;11.69;71.81;101035.36;1714037;83;20230;-75
2021/05/28 05:49:26;;;;;;;;;;;;;;;11.70;71.79;101032.75;1680380;81;20564;-75
2021/05/28 05:51:52;;;;;;;;;;;;;;;11.75;71.82;101041.31;1722205;83;20206;-75
2021/05/28 05:54:19;;;;;;;;;;;;;;;11.80;71.88;101042.58;1723899;83;20190;-75
2021/05/28 05:56:45;;;;;;;;;;;;;;;11.85;71.70;101036.89;1723685;83;20494;-75
2021/05/28 05:59:11;;;;;;;;;;;;;;;11.89;71.87;101043.31;1709881;81;20735;-75
2021/05/28 06:01:37;;;;;;;;;;;;;;;11.97;71.97;101040.58;1714127;83;20185;-75
2021/05/28 06:04:04;;;;;;;;;;;;;;;12.03;71.89;101034.44;1717012;83;20605;-75
2021/05/28 06:06:30;;;;;;;;;;;;;;;12.10;71.92;101036.06;1702286;81;20544;-75
2021/05/28 06:08:57;;;;;;;;;;;;;;;12.16;71.75;101039.86;1697296;83;20176;-75
2021/05/28 06:11:23;;;;;;;;;;;;;;;12.20;71.91;101037.19;1701868;83;20256;-75
2021/05/28 06:13:49;;;;;;;;;;;;;;;12.26;71.84;101038.83;1694679;84;20705;-75
2021/05/28 06:16:15;;;;;;;;;;;;;;;12.27;71.80;101037.95;1716832;81;20534;-75
2021/05/28 06:18:41;;;;;;;;;;;;;;;12.30;71.78;101043.53;1723410;83;20206;-75
2021/05/28 06:21:07;;;;;;;;;;;;;;;12.29;71.72;101039.22;1723727;83;20186;-75
2021/05/28 06:23:33;;;;;;;;;;;;;;;12.30;71.72;101043.53;1722837;81;20218;-75
2021/05/28 06:26:00;;;;;;;;;;;;;;;12.25;71.65;101045.75;1720128;83;20194;-75
2021/05/28 06:28:26;;;;;;;;;;;;;;;12.24;71.82;101053.12;1730252;83;20218;-75
2021/05/28 06:30:53;;;;;;;;;;;;;;;12.26;71.76;101053.09;1726589;83;20190;-75
2021/05/28 06:33:19;;;;;;;;;;;;;;;12.24;71.85;101059.60;1725086;83;20163;-75
2021/05/28 06:35:45;;;;;;;;;;;;;;;12.28;71.68;101063.44;1709496;81;21565;-75
2021/05/28 06:38:11;;;;;;;;;;;;;;;12.27;71.91;101062.59;1700514;83;20212;-75
2021/05/28 06:40:39;;;;;;;;;;;;;;;12.32;71.96;101065.96;1700803;84;20288;-75
2021/05/28 06:43:06;;;;;;;;;;;;;;;12.38;71.99;101064.57;1701127;83;20287;-75
2021/05/28 06:45:32;;;;;;;;;;;;;;;12.39;71.81;101068.02;1710474;83;20281;-75
2021/05/28 06:47:59;;;;;;;;;;;;;;;12.41;71.91;101067.55;1729040;83;20249;-75
2021/05/28 06:50:30;;;;;;;;;;;;;;;12.46;71.91;101070.93;1700729;83;20224;-75
2021/05/28 06:52:53;;;;;;;;;;;;;;;12.51;71.95;101069.09;1703954;83;20224;-75
2021/05/28 06:55:19;;;;;;;;;;;;;;;12.57;71.99;101069.84;1700843;83;20453;-75
2021/05/28 06:57:47;;;;;;;;;;;;;;;12.68;72.08;101068.36;1700863;84;20212;-75
2021/05/28 07:00:13;;;;;;;;;;;;;;;12.80;72.04;101073.78;1701476;83;20232;-75
2021/05/28 07:02:40;;;;;;;;;;;;;;;12.89;72.01;101075.77;1720953;81;20509;-75
2021/05/28 07:05:07;;;;;;;;;;;;;;;12.90;71.79;101068.84;1730139;82;20308;-75
2021/05/28 07:07:33;;;;;;;;;;;;;;;12.87;71.53;101076.68;1725706;83;20212;-75
2021/05/28 07:10:00;;;;;;;;;;;;;;;12.82;71.79;101077.20;1731243;83;20158;-75
2021/05/28 07:12:26;;;;;;;;;;;;;;;12.78;71.66;101072.51;1729858;83;20257;-75
2021/05/28 07:14:52;;;;;;;;;;;;;;;12.75;71.70;101078.19;1731721;83;20228;-75
2021/05/28 07:17:18;;;;;;;;;;;;;;;12.74;71.80;101081.67;1731619;82;20186;-75
2021/05/28 07:19:45;;;;;;;;;;;;;;;12.76;71.87;101081.20;1714428;83;20193;-75
2021/05/28 07:22:10;;;;;;;;;;;;;;;12.86;71.98;101081.02;1700987;83;20196;-75
2021/05/28 07:24:36;;;;;;;;;;;;;;;12.95;71.87;101077.84;1701958;83;20232;-74
2021/05/28 07:27:03;;;;;;;;;;;;;;;13.03;71.91;101078.52;1701216;83;20338;-74
2021/05/28 07:29:29;;;;;;;;;;;;;;;13.08;71.90;101084.05;1700694;83;20268;-74
2021/05/28 07:31:55;;;;;;;;;;;;;;;13.16;71.94;101083.94;1704058;83;20580;-74
2021/05/28 07:34:23;;;;;;;;;;;;;;;13.22;71.71;101075.59;1711130;83;20300;-74
2021/05/28 07:36:49;;;;;;;;;;;;;;;13.29;71.71;101085.86;1701145;84;20283;-74
2021/05/28 07:39:16;;;;;;;;;;;;;;;13.33;71.85;101083.61;1700913;84;20291;-74
2021/05/28 07:41:48;;;;;;;;;;;;;;;13.45;71.86;101079.47;1701564;83;20240;-74
2021/05/28 07:44:15;;;;;;;;;;;;;;;13.51;71.77;101078.05;1701013;83;20232;-76
2021/05/28 07:46:44;;;;;;;;;;;;;;;13.55;71.66;101084.86;1723405;83;20279;-75
2021/05/28 07:49:12;;;;;;;;;;;;;;;13.56;71.60;101090.03;1716139;82;20264;-75
2021/05/28 07:51:38;;;;;;;;;;;;;;;13.58;71.67;101090.00;1647973;85;20296;-75
2021/05/28 07:54:05;;;;;;;;;;;;;;;13.67;71.66;101091.55;1649673;86;20313;-75
2021/05/28 07:56:36;;;;;;;;;;;;;;;13.80;71.61;101091.26;1665054;84;20184;-75
2021/05/28 07:59:03;;;;;;;;;;;;;;;13.91;71.71;101094.48;1702509;84;20213;-75
2021/05/28 08:01:29;;;;;;;;;;;;;;;14.08;71.53;101094.08;1703859;83;20184;-75
2021/05/28 08:04:01;;;;;;;;;;;;;;;14.20;71.59;101093.80;1725271;83;20162;-75
2021/05/28 08:06:27;;;;;;;;;;;;;;;14.29;71.51;101095.33;1731591;82;20230;-75
2021/05/28 08:08:53;;;;;;;;;;;;;;;14.30;71.23;101093.58;1731704;83;20186;-75
2021/05/28 08:11:25;;;;;;;;;;;;;;;14.24;71.28;101094.13;1719089;82;20209;-75
2021/05/28 08:13:52;;;;;;;;;;;;;;;14.25;71.48;101098.45;1730200;83;20616;-75
2021/05/28 08:16:18;;;;;;;;;;;;;;;14.32;71.31;101101.77;1712531;83;20193;-75
2021/05/28 08:18:44;;;;;;;;;;;;;;;14.35;71.35;101106.03;1700990;83;20284;-75
2021/05/28 08:21:12;;;;;;;;;;;;;;;14.38;71.31;101102.92;1701001;84;20216;-75
2021/05/28 08:23:39;;;;;;;;;;;;;;;14.43;71.28;101106.30;1706070;83;20272;-74
2021/05/28 08:26:06;;;;;;;;;;;;;;;14.48;71.28;101106.19;1705051;83;20184;-74
2021/05/28 08:28:34;;;;;;;;;;;;;;;14.62;71.22;101112.33;1670041;85;20182;-74
2021/05/28 08:31:00;;;;;;;;;;;;;;;14.76;71.29;101108.48;1683723;84;20193;-74
2021/05/28 08:33:26;;;;;;;;;;;;;;;14.87;71.10;101108.22;1696310;84;20492;-74
2021/05/28 08:35:53;;;;;;;;;;;;;;;14.97;71.01;101110.99;1708766;83;20195;-74
2021/05/28 08:38:19;;;;;;;;;;;;;;;15.04;71.03;101109.94;1691901;83;20241;-76
2021/05/28 08:40:45;;;;;;;;;;;;;;;15.16;71.03;101108.28;1679602;84;20322;-75
2021/05/28 08:43:11;;;;;;;;;;;;;;;15.39;71.00;101110.26;1680100;84;20465;-75
2021/05/28 08:45:44;;;;;;;;;;;;;;;15.54;70.80;101105.06;1687536;84;20266;-75
2021/05/28 08:48:12;;;;;;;;;;;;;;;15.71;70.89;101111.95;1709601;84;20195;-75
2021/05/28 08:50:39;;;;;;;;;;;;;;;16.13;70.85;101107.17;1682108;84;20217;-75
2021/05/28 08:53:10;;;;;;;;;;;;;;;16.67;70.52;101114.61;1681047;84;20162;-75
2021/05/28 08:55:37;;;;;;;;;;;;;;;17.00;70.14;101113.47;1680597;85;20213;-75
2021/05/28 08:58:07;;;;;;;;;;;;;;;16.98;70.04;101107.45;1682695;83;20198;-75
2021/05/28 09:00:34;;;;;;;;;;;;;;;17.06;70.00;101109.34;1689249;84;20194;-75
2021/05/28 09:03:21;;;;;;;;;;;;;;;17.47;69.43;101105.67;1681775;84;20183;-75
2021/05/28 09:05:48;;;;;;;;;;;;;;;17.49;69.34;101102.10;1697581;84;20175;-75
2021/05/28 09:08:27;;;;;;;;;;;;;;;17.33;69.38;101114.47;1709036;84;20195;-75
2021/05/28 09:11:04;;;;;;;;;;;;;;;17.11;69.44;101115.26;1707290;83;20223;-75
2021/05/28 09:13:30;;;;;;;;;;;;;;;16.81;69.42;101116.31;1709140;84;20159;-75
2021/05/28 09:16:06;;;;;;;;;;;;;;;16.55;69.37;101125.85;1709164;83;20223;-75
2021/05/28 09:18:40;;;;;;;;;;;;;;;16.30;69.37;101125.37;1695446;83;20584;-75
2021/05/28 09:21:07;;;;;;;;;;;;;;;16.10;69.45;101133.84;1708561;84;20219;-75
2021/05/28 09:23:34;;;;;;;;;;;;;;;15.89;69.58;101130.97;1705596;83;142383;-75
2021/05/28 09:26:04;;;;;;;;;;;;;;;15.70;69.75;101134.16;1708361;83;20195;-75
2021/05/28 09:28:48;;;;;;;;;;;;;;;15.52;69.90;101141.60;1685341;84;20197;-75
2021/05/28 09:31:22;;;;;;;;;;;;;;;15.38;70.09;101140.27;1690801;85;20169;-75
2021/05/28 09:33:50;;;;;;;;;;;;;;;15.27;70.10;101140.56;1708571;82;20166;-75
2021/05/28 09:36:36;;;;;;;;;;;;;;;15.18;70.09;101144.71;1708396;83;20270;-75
2021/05/28 09:39:14;;;;;;;;;;;;;;;15.14;70.20;101140.03;1719377;83;20215;-75
2021/05/28 09:41:53;;;;;;;;;;;;;;;15.15;70.31;101141.73;1711747;83;20207;-75
2021/05/28 09:44:25;;;;;;;;;;;;;;;15.26;70.42;101143.20;1715091;83;20206;-74
2021/05/28 09:47:14;;;;;;;;;;;;;;;15.39;70.32;101135.47;1713135;83;20242;-74
2021/05/28 09:49:49;;;;;;;;;;;;;;;15.50;70.14;101134.72;1694472;83;20333;-74
2021/05/28 09:52:18;;;;;;;;;;;;;;;15.67;70.09;101142.07;1688777;83;20297;-74
2021/05/28 09:55:08;;;;;;;;;;;;;;;15.79;70.02;101134.75;1708893;83;20193;-74
2021/05/28 09:57:37;;;;;;;;;;;;;;;15.88;69.94;101135.79;1695016;83;20292;-75
2021/05/28 10:00:26;;;;;;;;;;;;;;;15.98;69.73;101134.21;1686607;83;20321;-75
2021/05/28 10:03:26;;;;;;;;;;;;;;;16.02;69.57;101128.86;1697619;83;20293;-75
2021/05/28 10:05:58;;;;;;;;;;;;;;;16.08;69.51;101126.06;1718982;83;20186;-75
2021/05/28 10:08:25;;;;;;;;;;;;;;;16.02;69.19;101128.86;1686633;83;20548;-75
2021/05/28 10:10:53;;;;;;;;;;;;;;;15.95;69.19;101129.94;1690661;83;20209;-75
2021/05/28 10:13:21;;;;;;;;;;;;;;;15.87;69.05;101131.92;1690274;85;20193;-75
2021/05/28 10:15:49;;;;;;;;;;;;;;;15.79;69.24;101125.63;1694047;83;20612;-75
2021/05/28 10:18:17;;;;;;;;;;;;;;;15.88;69.31;101134.94;1716425;83;20199;-75
2021/05/28 10:20:45;;;;;;;;;;;;;;;15.97;69.12;101132.50;1719426;83;20198;-75
2021/05/28 10:23:12;;;;;;;;;;;;;;;15.99;69.10;101128.09;1694177;83;20556;-74
2021/05/28 10:25:39;;;;;;;;;;;;;;;16.04;69.17;101124.90;1690730;83;20242;-74
2021/05/28 10:28:20;;;;;;;;;;;;;;;16.10;68.96;101126.88;1689122;83;20304;-75
2021/05/28 10:30:49;;;;;;;;;;;;;;;16.15;69.00;101118.87;1687147;84;20499;-75
2021/05/28 10:33:22;;;;;;;;;;;;;;;16.28;69.00;101117.59;1689534;83;20305;-75
2021/05/28 10:35:50;;;;;;;;;;;;;;;16.49;68.72;101116.06;1688894;83;20216;-75
2021/05/28 10:38:40;;;;;;;;;;;;;;;16.64;68.70;101122.09;1688860;84;20297;-75
2021/05/28 10:41:13;;;;;;;;;;;;;;;16.69;68.50;101123.24;1700057;83;20286;-74
2021/05/28 10:43:53;;;;;;;;;;;;;;;16.49;68.13;101127.35;1717899;83;20301;-74
2021/05/28 10:46:19;;;;;;;;;;;;;;;16.33;68.09;101130.49;1718006;83;20203;-75
2021/05/28 10:48:50;;;;;;;;;;;;;;;16.25;68.23;101128.13;1699334;83;20277;-75
2021/05/28 10:51:28;;;;;;;;;;;;;;;16.25;68.30;101125.97;1689119;83;20213;-75
2021/05/28 10:53:58;;;;;;;;;;;;;;;16.27;68.27;101123.71;1689543;84;20205;-74
2021/05/28 10:56:26;;;;;;;;;;;;;;;16.29;67.92;101120.60;1689256;84;20213;-74
2021/05/28 10:59:01;;;;;;;;;;;;;;;16.30;68.16;101117.54;1704966;83;20286;-74
2021/05/28 11:01:45;;;;;;;;;;;;;;;16.34;68.01;101114.79;1718305;83;20282;-74
2021/05/28 11:04:12;;;;;;;;;;;;;;;16.29;67.93;101121.91;1718050;83;20286;-75
2021/05/28 11:07:03;;;;;;;;;;;;;;;16.27;68.23;101121.10;1710293;83;20297;-76
2021/05/28 11:09:38;;;;;;;;;;;;;;;16.25;68.17;101125.52;1717066;83;20313;-75
2021/05/28 11:12:28;;;;;;;;;;;;;;;16.26;68.10;101129.83;1699662;83;20260;-75
2021/05/28 11:15:05;;;;;;;;;;;;;;;16.23;68.16;101130.78;1687476;84;20237;-75
2021/05/28 11:17:51;;;;;;;;;;;;;;;16.03;68.05;101144.06;1705282;83;20254;-75
2021/05/28 11:20:26;;;;;;;;;;;;;;;15.85;68.18;101153.28;1660376;86;20282;-75
2021/05/28 11:22:57;;;;;;;;;;;;;;;15.64;68.26;101153.44;1641084;86;20312;-75
2021/05/28 11:25:24;;;;;;;;;;;;;;;15.51;68.52;101150.31;1663378;84;20244;-75
2021/05/28 11:27:56;;;;;;;;;;;;;;;15.52;68.81;101151.17;1661977;85;20255;-75
2021/05/28 11:30:26;;;;;;;;;;;;;;;15.58;68.79;101147.58;1642703;86;20266;-75
2021/05/28 11:32:53;;;;;;;;;;;;;;;15.61;68.45;101154.83;1650173;85;20269;-75
2021/05/28 11:35:24;;;;;;;;;;;;;;;15.65;68.45;101155.15;1684468;83;20662;-75
2021/05/28 11:37:59;;;;;;;;;;;;;;;15.69;68.51;101154.61;1682938;85;20285;-75
2021/05/28 11:40:38;;;;;;;;;;;;;;;15.76;68.38;101159.61;1683525;85;20552;-75
2021/05/28 11:43:17;;;;;;;;;;;;;;;15.82;68.17;101155.53;1687662;83;20245;-75
2021/05/28 11:45:47;;;;;;;;;;;;;;;15.80;67.97;101156.02;1692984;83;20185;-75
2021/05/28 11:48:15;;;;;;;;;;;;;;;15.77;67.97;101164.38;1703468;82;20148;-75
2021/05/28 11:50:46;;;;;;;;;;;;;;;15.66;67.70;101170.34;1711853;83;20626;-75
2021/05/28 11:53:12;;;;;;;;;;;;;;;15.56;67.77;101178.86;1704318;83;20185;-75
2021/05/28 11:55:47;;;;;;;;;;;;;;;15.48;67.72;101176.91;1683225;83;20237;-75
2021/05/28 11:58:13;;;;;;;;;;;;;;;15.39;67.69;101174.11;1682558;84;20245;-75
2021/05/28 12:00:40;;;;;;;;;;;;;;;15.25;67.64;101165.80;1683211;83;20289;-75
2021/05/28 12:03:07;;;;;;;;;;;;;;;15.16;67.86;101174.70;1709220;83;20261;-75
2021/05/28 12:05:39;;;;;;;;;;;;;;;15.09;67.76;101174.45;1700509;83;20282;-75
2021/05/28 12:08:17;;;;;;;;;;;;;;;14.93;67.75;101169.26;1682012;85;20285;-75
2021/05/28 12:10:47;;;;;;;;;;;;;;;14.82;67.85;101172.13;1682724;84;20585;-75
2021/05/28 12:13:15;;;;;;;;;;;;;;;14.76;67.83;101177.92;1684968;83;20309;-75
2021/05/28 12:15:49;;;;;;;;;;;;;;;14.73;68.04;101178.00;1712605;83;20187;-75
2021/05/28 12:18:21;;;;;;;;;;;;;;;14.69;68.06;101179.82;1712714;83;20179;-75
2021/05/28 12:20:54;;;;;;;;;;;;;;;14.72;68.20;101178.89;1702240;83;20213;-75
2021/05/28 12:23:23;;;;;;;;;;;;;;;14.71;67.98;101179.34;1709382;82;20342;-75
2021/05/28 12:26:01;;;;;;;;;;;;;;;14.67;68.10;101172.94;1695379;83;20597;-75
2021/05/28 12:28:46;;;;;;;;;;;;;;;14.69;68.06;101176.36;1711115;83;20645;-75
2021/05/28 12:31:16;;;;;;;;;;;;;;;14.71;68.08;101173.28;1667709;85;20269;-75
2021/05/28 12:34:07;;;;;;;;;;;;;;;14.79;68.09;101177.41;1685688;83;20300;-75
2021/05/28 12:36:41;;;;;;;;;;;;;;;14.92;68.22;101177.11;1693763;83;20573;-75
2021/05/28 12:39:14;;;;;;;;;;;;;;;15.06;68.08;101178.92;1682840;85;20233;-75
2021/05/28 12:41:42;;;;;;;;;;;;;;;15.22;68.08;101178.45;1682412;85;20313;-75
2021/05/28 12:44:09;;;;;;;;;;;;;;;15.41;68.10;101178.83;1690461;83;21099;-75
2021/05/28 12:46:38;;;;;;;;;;;;;;;15.59;68.01;101175.35;1703402;84;20522;-75
2021/05/28 12:49:09;;;;;;;;;;;;;;;15.74;67.94;101175.75;1698310;83;20318;-75